Time;durP1;ratioP1;P1;durP2;ratioP2;P2;SDS_P1;SDS_P2;PMS_P1;PMS_P2;Temp;Humidity;BMP_temperature;BMP_pressure;BME280_temperature;BME280_humidity;BME280_pressure;Samples;Min_cycle;Max_cycle;Signal;HPM_P1;HPM_P2
2022/01/02 00:00:19;;;;;;;5.83;3.60;;;;;;;4.94;100.00;99609.97;4953129;28;20039;-58
2022/01/02 00:03:03;;;;;;;5.47;3.57;;;;;;;4.81;100.00;99599.53;4951995;28;20230;-58
2022/01/02 00:05:34;;;;;;;5.03;4.03;;;;;;;4.80;100.00;99610.50;4951598;28;20422;-58
2022/01/02 00:08:02;;;;;;;4.83;3.60;;;;;;;4.74;100.00;99600.25;4950328;28;20095;-56
2022/01/02 00:10:31;;;;;;;4.53;3.70;;;;;;;4.72;100.00;99601.88;4950214;28;20433;-56
2022/01/02 00:12:58;;;;;;;7.87;3.77;;;;;;;4.66;100.00;99594.16;4951930;28;20038;-58
2022/01/02 00:15:24;;;;;;;5.67;4.00;;;;;;;4.66;100.00;99596.72;4954593;28;20516;-58
2022/01/02 00:17:52;;;;;;;4.13;3.43;;;;;;;4.74;100.00;99590.94;4957524;28;20592;-58
2022/01/02 00:20:32;;;;;;;5.83;3.60;;;;;;;4.80;100.00;99590.19;4953662;28;20433;-58
2022/01/02 00:23:04;;;;;;;4.47;2.90;;;;;;;4.93;100.00;99589.59;4954301;28;20710;-57
2022/01/02 00:25:34;;;;;;;5.57;3.40;;;;;;;5.01;100.00;99588.91;4957508;28;20650;-58
2022/01/02 00:28:00;;;;;;;4.70;3.20;;;;;;;5.01;100.00;99581.28;4936695;28;20194;-58
2022/01/02 00:30:26;;;;;;;5.43;4.00;;;;;;;4.97;100.00;99587.16;4952401;28;20584;-58
2022/01/02 00:32:51;;;;;;;6.17;3.27;;;;;;;4.94;100.00;99578.63;4951165;28;20030;-57
2022/01/02 00:35:17;;;;;;;3.47;3.10;;;;;;;4.96;100.00;99574.44;4954632;28;20089;-58
2022/01/02 00:37:44;;;;;;;3.20;2.90;;;;;;;5.00;100.00;99569.44;4954213;28;20349;-56
2022/01/02 00:40:10;;;;;;;4.63;3.57;;;;;;;5.03;100.00;99574.56;4950235;28;20043;-58
2022/01/02 00:42:39;;;;;;;3.50;2.73;;;;;;;5.00;100.00;99569.44;4955692;28;20046;-57
2022/01/02 00:45:06;;;;;;;3.13;2.83;;;;;;;5.08;100.00;99567.03;4947714;28;20045;-56
2022/01/02 00:47:43;;;;;;;4.10;2.83;;;;;;;5.10;100.00;99567.91;4952545;28;20126;-58
2022/01/02 00:50:15;;;;;;;3.10;2.43;;;;;;;4.94;100.00;99568.44;4933763;28;20615;-58
2022/01/02 00:52:44;;;;;;;3.57;2.90;;;;;;;4.89;100.00;99567.50;4954588;28;20508;-58
2022/01/02 00:55:21;;;;;;;5.53;3.60;;;;;;;4.91;100.00;99560.78;4955635;28;20023;-57
2022/01/02 00:58:08;;;;;;;4.20;2.90;;;;;;;4.96;100.00;99561.72;4954954;28;20413;-57
2022/01/02 01:00:34;;;;;;;4.27;3.13;;;;;;;4.92;100.00;99555.72;4951286;28;20039;-56
2022/01/02 01:03:07;;;;;;;4.47;3.23;;;;;;;4.97;100.00;99543.94;4957730;28;20031;-57
2022/01/02 01:05:36;;;;;;;3.07;2.70;;;;;;;5.00;100.00;99553.34;4944237;28;20345;-56
2022/01/02 01:08:07;;;;;;;3.17;2.87;;;;;;;5.00;100.00;99543.16;4951338;28;20038;-57
2022/01/02 01:10:38;;;;;;;5.27;2.67;;;;;;;4.89;100.00;99544.66;4953546;28;20865;-57
2022/01/02 01:13:08;;;;;;;6.47;2.80;;;;;;;4.75;100.00;99544.41;4954084;28;20045;-58
2022/01/02 01:15:34;;;;;;;2.83;2.53;;;;;;;4.58;100.00;99543.22;4953322;28;20051;-57
2022/01/02 01:18:01;;;;;;;4.50;3.00;;;;;;;4.65;100.00;99539.97;4952303;28;20058;-58
2022/01/02 01:20:41;;;;;;;4.67;3.00;;;;;;;4.73;100.00;99530.81;4951291;28;20035;-57
2022/01/02 01:23:07;;;;;;;5.03;3.43;;;;;;;4.61;100.00;99533.13;4953545;28;20035;-57
2022/01/02 01:25:33;;;;;;;3.47;3.17;;;;;;;4.59;100.00;99529.69;4951826;28;20031;-58
2022/01/02 01:28:00;;;;;;;3.50;2.90;;;;;;;4.63;100.00;99530.59;4931412;28;20038;-58
2022/01/02 01:30:27;;;;;;;3.47;2.97;;;;;;;4.66;100.00;99531.53;4956791;28;20113;-58
2022/01/02 01:32:53;;;;;;;4.20;3.13;;;;;;;4.66;100.00;99521.38;4952883;28;20027;-57
2022/01/02 01:35:19;;;;;;;5.53;3.03;;;;;;;4.71;100.00;99516.38;4948988;28;20045;-60
2022/01/02 01:37:45;;;;;;;3.00;2.60;;;;;;;4.60;100.00;99521.25;4949116;28;20137;-55
2022/01/02 01:40:12;;;;;;;3.27;2.87;;;;;;;4.55;100.00;99512.69;4951968;28;20030;-58
2022/01/02 01:42:42;;;;;;;3.27;2.70;;;;;;;4.52;100.00;99510.09;4953448;28;20027;-56
2022/01/02 01:47:50;;;;;;;3.67;2.80;;;;;;;4.46;100.00;99500.66;4950641;28;20047;-54
2022/01/02 01:50:16;;;;;;;3.30;2.50;;;;;;;4.45;100.00;99493.91;4954942;28;20023;-55
2022/01/02 01:52:42;;;;;;;3.60;3.23;;;;;;;4.49;100.00;99489.72;4951489;28;20493;-57
2022/01/02 01:55:08;;;;;;;4.77;2.67;;;;;;;4.59;100.00;99484.84;4948565;28;20158;-57
2022/01/02 01:57:34;;;;;;;3.13;2.63;;;;;;;4.52;100.00;99472.00;4950003;28;20031;-55
2022/01/02 02:00:03;;;;;;;4.17;2.57;;;;;;;4.49;100.00;99472.81;4953592;28;20031;-57
2022/01/02 02:02:28;;;;;;;3.17;2.87;;;;;;;4.44;100.00;99465.94;4957098;28;20062;-54
2022/01/02 02:04:54;;;;;;;2.87;2.53;;;;;;;4.40;100.00;99466.72;4952913;28;20143;-57
2022/01/02 02:07:26;;;;;;;3.43;2.50;;;;;;;4.40;100.00;99467.56;4949987;28;20038;-58
2022/01/02 02:12:24;;;;;;;3.50;2.83;;;;;;;4.29;100.00;99466.50;4952799;28;20130;-57
2022/01/02 02:14:50;;;;;;;2.90;2.60;;;;;;;4.24;100.00;99470.66;4948736;28;20161;-58
2022/01/02 02:17:16;;;;;;;3.27;2.30;;;;;;;4.13;100.00;99464.47;4950934;28;20448;-55
2022/01/02 02:19:42;;;;;;;2.33;2.13;;;;;;;4.06;100.00;99460.97;4953880;28;20082;-56
2022/01/02 02:22:08;;;;;;;3.73;2.87;;;;;;;4.00;100.00;99453.22;4950013;28;20509;-58
2022/01/02 02:24:33;;;;;;;5.43;3.37;;;;;;;3.96;100.00;99454.00;4937340;28;20035;-58
2022/01/02 02:27:00;;;;;;;4.23;3.10;;;;;;;3.90;100.00;99451.34;4955296;28;20046;-58
2022/01/02 02:29:25;;;;;;;3.83;2.50;;;;;;;3.87;100.00;99452.94;4952830;28;20516;-58
2022/01/02 02:31:55;;;;;;;4.57;3.63;;;;;;;3.79;100.00;99447.72;4950612;28;20460;-58
2022/01/02 02:34:20;;;;;;;3.63;2.90;;;;;;;3.81;100.00;99447.75;4948077;28;20026;-56
2022/01/02 02:36:46;;;;;;;3.23;2.67;;;;;;;3.91;100.00;99442.03;4952774;28;20444;-57
2022/01/02 02:39:11;;;;;;;4.67;3.17;;;;;;;3.94;100.00;99437.03;4955430;28;20496;-58
2022/01/02 02:41:39;;;;;;;3.07;2.77;;;;;;;3.97;100.00;99430.34;4950991;28;20085;-56
2022/01/02 02:44:35;;;;;;;3.67;2.93;;;;;;;3.99;100.00;99435.44;4948199;28;20027;-55
2022/01/02 02:49:39;;;;;;;4.10;3.60;;;;;;;3.92;100.00;99426.00;4951618;28;20497;-57
2022/01/02 02:52:13;;;;;;;3.53;2.90;;;;;;;3.94;100.00;99429.44;4947982;28;20765;-59
2022/01/02 02:54:40;;;;;;;4.63;3.07;;;;;;;3.90;100.00;99427.66;4951077;28;20034;-55
2022/01/02 02:57:12;;;;;;;6.03;2.80;;;;;;;3.86;100.00;99428.44;4952309;28;20035;-58
2022/01/02 02:59:37;;;;;;;5.30;2.50;;;;;;;3.76;100.00;99419.78;4949488;28;20035;-56
2022/01/02 03:02:03;;;;;;;6.47;2.73;;;;;;;3.75;100.00;99415.50;4951601;28;20042;-59
2022/01/02 03:04:28;;;;;;;3.80;2.20;;;;;;;3.76;100.00;99413.84;4940275;28;20125;-58
2022/01/02 03:06:54;;;;;;;3.10;2.20;;;;;;;3.86;100.00;99414.03;4950550;28;20039;-59
2022/01/02 03:09:40;;;;;;;4.77;2.77;;;;;;;3.79;100.00;99407.16;4937192;28;20090;-57
2022/01/02 03:12:06;;;;;;;;;;;;;;;3.76;100.00;99403.69;4948483;28;20273;-56
2022/01/02 03:14:32;;;;;;;2.80;2.50;;;;;;;3.66;100.00;99397.56;4949042;28;19923;-58
2022/01/02 03:16:58;;;;;;;2.83;2.30;;;;;;;3.62;100.00;99398.34;4950798;28;20035;-59
2022/01/02 03:19:23;;;;;;;3.50;2.80;;;;;;;3.58;100.00;99394.88;4953046;28;20405;-56
2022/01/02 03:21:49;;;;;;;3.13;2.63;;;;;;;3.58;100.00;99388.97;4954510;28;20166;-58
2022/01/02 03:24:14;;;;;;;2.60;2.20;;;;;;;3.56;100.00;99381.34;4955598;28;20101;-58
2022/01/02 03:26:39;;;;;;;2.37;2.13;;;;;;;3.48;100.00;99367.63;4956279;28;20113;-59
2022/01/02 03:29:05;;;;;;;3.53;3.00;;;;;;;3.54;100.00;99385.50;4952297;28;20039;-59
2022/01/02 03:31:30;;;;;;;3.70;2.93;;;;;;;3.49;100.00;99382.00;4952556;28;20031;-57
2022/01/02 03:33:56;;;;;;;3.57;2.37;;;;;;;3.45;100.00;99386.97;4956072;28;20047;-57
2022/01/02 03:36:22;;;;;;;3.03;2.70;;;;;;;3.38;100.00;99363.22;4956703;28;20058;-59
2022/01/02 03:38:47;;;;;;;3.10;2.00;;;;;;;3.40;100.00;99374.22;4954398;28;20082;-58
2022/01/02 03:41:13;;;;;;;2.97;2.60;;;;;;;3.33;100.00;99366.44;4954212;28;20037;-57
2022/01/02 03:43:39;;;;;;;5.07;2.57;;;;;;;3.31;100.00;99360.50;4957725;28;20065;-58
2022/01/02 03:46:04;;;;;;;5.50;2.83;;;;;;;3.28;100.00;99343.53;4959565;28;20039;-58
2022/01/02 03:48:34;;;;;;;3.80;3.07;;;;;;;3.23;100.00;99337.53;4956041;28;20105;-59
2022/01/02 03:51:00;;;;;;;3.67;3.00;;;;;;;3.18;100.00;99339.13;4957250;28;20031;-57
2022/01/02 03:53:26;;;;;;;3.33;2.70;;;;;;;3.24;100.00;99341.78;4961885;28;20041;-55
2022/01/02 03:55:53;;;;;;;3.93;2.83;;;;;;;3.23;100.00;99340.06;4958935;28;20035;-57
2022/01/02 03:58:19;;;;;;;6.27;3.07;;;;;;;3.28;100.00;99330.88;4956621;28;20461;-56
2022/01/02 04:00:45;;;;;;;2.67;2.47;;;;;;;3.33;100.00;99336.91;4956749;28;20031;-54
2022/01/02 04:03:11;;;;;;;3.90;2.50;;;;;;;3.43;100.00;99346.41;4961788;28;20104;-57
2022/01/02 04:05:36;;;;;;;2.90;2.57;;;;;;;3.44;100.00;99337.09;4958847;28;20067;-53
2022/01/02 04:08:03;;;;;;;3.03;2.67;;;;;;;3.50;100.00;99343.19;4954980;28;20028;-55
2022/01/02 04:10:28;;;;;;;3.50;3.20;;;;;;;3.63;100.00;99340.06;4957349;28;20118;-55
2022/01/02 04:12:54;;;;;;;2.43;1.80;;;;;;;3.72;100.00;99338.53;4959188;28;20636;-58
2022/01/02 04:15:19;;;;;;;3.23;2.83;;;;;;;3.67;100.00;99336.75;4958557;28;20043;-57
2022/01/02 04:17:45;;;;;;;2.83;2.50;;;;;;;3.69;100.00;99317.34;4939152;28;20034;-54
2022/01/02 04:20:13;;;;;;;2.63;2.30;;;;;;;3.80;100.00;99317.56;4958166;28;20363;-56
2022/01/02 04:22:39;;;;;;;3.37;2.57;;;;;;;3.74;100.00;99319.97;4958107;28;20034;-58
2022/01/02 04:25:07;;;;;;;2.50;2.10;;;;;;;3.68;100.00;99318.19;4957764;28;20221;-57
2022/01/02 04:27:33;;;;;;;3.93;2.50;;;;;;;3.68;100.00;99303.00;4955372;28;20030;-58
2022/01/02 04:29:59;;;;;;;3.27;2.53;;;;;;;3.62;100.00;99296.94;4955858;28;20031;-57
2022/01/02 04:32:24;;;;;;;3.87;2.50;;;;;;;3.67;100.00;99297.88;4958161;28;20155;-58
2022/01/02 04:34:50;;;;;;;2.67;2.30;;;;;;;3.68;100.00;99299.59;4955816;28;20047;-58
2022/01/02 04:37:15;;;;;;;2.30;2.10;;;;;;;3.72;100.00;99295.44;4957335;28;20039;-58
2022/01/02 04:39:41;;;;;;;2.67;2.00;;;;;;;3.70;100.00;99292.84;4945361;28;20035;-58
2022/01/02 04:42:07;;;;;;;3.83;2.63;;;;;;;3.67;100.00;99281.00;4959298;28;20035;-58
2022/01/02 04:44:33;;;;;;;2.77;2.00;;;;;;;3.61;100.00;99288.47;4956865;28;20039;-58
2022/01/02 04:46:59;;;;;;;4.53;2.50;;;;;;;3.52;100.00;99270.53;4940826;28;20456;-58
2022/01/02 04:49:25;;;;;;;3.47;2.40;;;;;;;3.45;100.00;99270.41;4958153;28;20032;-58
2022/01/02 04:51:52;;;;;;;3.03;2.03;;;;;;;3.41;100.00;99269.50;4958665;28;20451;-58
2022/01/02 04:54:18;;;;;;;2.80;2.20;;;;;;;3.38;100.00;99273.66;4958963;28;20540;-58
2022/01/02 04:56:44;;;;;;;3.37;2.07;;;;;;;3.30;100.00;99273.50;4955814;28;20035;-57
2022/01/02 04:59:09;;;;;;;3.47;2.40;;;;;;;3.30;100.00;99270.97;4955992;28;20422;-56
2022/01/02 05:01:35;;;;;;;4.07;2.70;;;;;;;3.21;100.00;99265.72;4952378;28;20023;-58
2022/01/02 05:04:00;;;;;;;7.13;3.90;;;;;;;3.21;100.00;99260.66;4959827;28;20030;-59
2022/01/02 05:06:25;;;;;;;5.47;2.97;;;;;;;3.23;100.00;99257.31;4955111;28;20042;-59
2022/01/02 05:08:51;;;;;;;4.63;3.27;;;;;;;3.24;100.00;99245.50;4957922;28;20102;-59
2022/01/02 05:11:17;;;;;;;4.53;2.77;;;;;;;3.28;100.00;99244.72;4956865;28;20374;-56
2022/01/02 05:13:43;;;;;;;3.17;2.50;;;;;;;3.35;100.00;99236.44;4943544;28;20621;-56
2022/01/02 05:16:09;;;;;;;3.57;2.20;;;;;;;3.38;100.00;99236.50;4954710;28;20493;-57
2022/01/02 05:18:34;;;;;;;4.07;3.00;;;;;;;3.38;100.00;99248.31;4958532;28;20023;-57
2022/01/02 05:21:00;;;;;;;3.20;2.23;;;;;;;3.31;100.00;99249.84;4958915;28;20069;-57
2022/01/02 05:23:25;;;;;;;2.50;2.27;;;;;;;3.30;100.00;99240.56;4956890;28;20042;-53
2022/01/02 05:25:51;;;;;;;2.97;2.37;;;;;;;3.17;100.00;99236.06;4954450;28;20074;-58
2022/01/02 05:28:17;;;;;;;2.60;2.40;;;;;;;3.16;100.00;99230.16;4960870;28;20063;-56
2022/01/02 05:30:43;;;;;;;5.63;3.07;;;;;;;3.07;100.00;99232.50;4957707;28;20059;-56
2022/01/02 05:33:10;;;;;;;2.77;2.37;;;;;;;2.96;100.00;99231.44;4954319;28;20035;-57
2022/01/02 05:35:36;;;;;;;2.33;2.13;;;;;;;2.89;100.00;99229.56;4954842;28;20035;-57
2022/01/02 05:38:01;;;;;;;3.23;2.60;;;;;;;2.85;100.00;99225.28;4957936;28;20077;-56
2022/01/02 05:40:33;;;;;;;3.67;2.30;;;;;;;2.78;100.00;99220.06;4966734;28;20042;-58
2022/01/02 05:43:05;;;;;;;2.90;2.63;;;;;;;2.76;100.00;99218.34;4955413;28;20031;-56
2022/01/02 05:45:30;;;;;;;4.90;2.93;;;;;;;2.74;100.00;99211.53;4956694;28;20053;-58
2022/01/02 05:47:56;;;;;;;3.03;2.33;;;;;;;2.73;100.00;99214.88;4957123;28;20031;-56
2022/01/02 05:50:22;;;;;;;2.80;2.20;;;;;;;2.88;100.00;99217.75;4954717;28;20026;-57
2022/01/02 05:52:47;;;;;;;2.20;2.00;;;;;;;2.76;100.00;99210.75;4954482;28;20478;-56
2022/01/02 05:55:13;;;;;;;3.63;2.37;;;;;;;2.74;100.00;99204.81;4958222;28;20089;-57
2022/01/02 05:57:39;;;;;;;6.27;3.67;;;;;;;2.69;100.00;99200.47;4958165;28;20050;-55
2022/01/02 06:00:05;;;;;;;5.27;3.43;;;;;;;2.65;100.00;99183.50;4959176;28;20378;-57
2022/01/02 06:02:31;;;;;;;3.10;2.80;;;;;;;2.60;100.00;99169.88;4957210;28;20039;-56
2022/01/02 06:04:57;;;;;;;2.77;2.50;;;;;;;2.72;100.00;99168.47;4958296;28;20030;-57
2022/01/02 06:07:23;;;;;;;4.50;2.50;;;;;;;2.79;100.00;99172.00;4953933;28;20031;-57
2022/01/02 06:09:48;;;;;;;4.20;2.43;;;;;;;2.75;100.00;99155.03;4954246;28;20524;-56
2022/01/02 06:12:14;;;;;;;2.57;2.00;;;;;;;2.88;100.00;99168.78;4953337;28;20039;-56
2022/01/02 06:14:39;;;;;;;2.73;2.53;;;;;;;2.89;100.00;99168.81;4956252;28;20134;-57
2022/01/02 06:17:05;;;;;;;4.60;2.33;;;;;;;3.00;100.00;99174.09;4954155;28;20555;-57
2022/01/02 06:19:30;;;;;;;5.43;2.77;;;;;;;2.99;100.00;99163.09;4952861;28;20477;-57
2022/01/02 06:21:56;;;;;;;4.87;3.17;;;;;;;3.01;100.00;99180.88;4955239;28;20430;-58
2022/01/02 06:24:21;;;;;;;3.10;2.70;;;;;;;3.05;100.00;99183.50;4957475;28;20035;-58
2022/01/02 06:26:46;;;;;;;3.80;3.00;;;;;;;3.09;100.00;99166.69;4961509;28;20489;-57
2022/01/02 06:29:12;;;;;;;3.57;2.30;;;;;;;3.07;100.00;99166.63;4953402;28;20070;-56
2022/01/02 06:31:38;;;;;;;2.20;2.00;;;;;;;3.01;100.00;99165.69;4952948;28;20233;-57
2022/01/02 06:34:03;;;;;;;3.07;2.40;;;;;;;2.91;100.00;99149.44;4953785;28;20474;-57
2022/01/02 06:36:28;;;;;;;2.87;2.17;;;;;;;2.87;100.00;99162.88;4951095;28;20034;-57
2022/01/02 06:38:54;;;;;;;4.33;2.60;;;;;;;2.84;100.00;99161.97;4950302;28;20039;-57
2022/01/02 06:41:19;;;;;;;2.27;2.07;;;;;;;2.84;100.00;99161.97;4949692;28;20042;-57
2022/01/02 06:43:51;;;;;;;2.63;2.43;;;;;;;3.11;100.00;99162.47;4957896;28;20037;-56
2022/01/02 06:46:17;;;;;;;2.53;2.00;;;;;;;3.09;100.00;99151.50;4941567;28;20440;-57
2022/01/02 06:48:42;;;;;;;3.13;2.40;;;;;;;3.06;100.00;99143.81;4946129;28;20082;-58
2022/01/02 06:51:08;;;;;;;1.87;1.77;;;;;;;2.97;100.00;99144.47;4951072;28;20405;-58
2022/01/02 06:53:33;;;;;;;2.90;2.60;;;;;;;2.93;100.00;99155.38;4952762;28;20031;-58
2022/01/02 06:55:59;;;;;;;3.20;2.50;;;;;;;2.87;100.00;99159.50;4953006;28;20027;-58
2022/01/02 06:58:24;;;;;;;3.27;2.10;;;;;;;2.86;100.00;99172.97;4949534;28;20086;-59
2022/01/02 07:00:51;;;;;;;3.53;2.60;;;;;;;3.00;100.00;99174.09;4933731;28;20043;-59
2022/01/02 07:03:17;;;;;;;5.73;3.33;;;;;;;3.18;100.00;99171.94;4954262;28;20406;-57
2022/01/02 07:05:42;;;;;;;27.83;12.43;;;;;;;3.16;100.00;99164.28;4953744;28;20215;-58
2022/01/02 07:08:09;;;;;;;53.53;22.20;;;;;;;3.23;100.00;99147.50;4949076;28;20545;-58
2022/01/02 07:10:35;;;;;;;40.67;20.13;;;;;;;3.17;100.00;99145.75;4953483;28;20465;-58
2022/01/02 07:13:00;;;;;;;34.40;17.13;;;;;;;3.15;100.00;99139.78;4950678;28;20078;-57
2022/01/02 07:15:26;;;;;;;28.07;12.80;;;;;;;3.16;100.00;99153.28;4951395;28;20117;-58
2022/01/02 07:17:51;;;;;;;18.03;9.90;;;;;;;3.28;100.00;99150.13;4950156;28;20548;-54
2022/01/02 07:20:17;;;;;;;9.80;5.50;;;;;;;3.23;100.00;99150.91;4959969;28;20042;-58
2022/01/02 07:22:42;;;;;;;6.53;3.70;;;;;;;3.30;100.00;99144.28;4957295;28;20027;-59
2022/01/02 07:25:10;;;;;;;10.53;5.60;;;;;;;3.42;100.00;99141.97;4957960;28;20526;-57
2022/01/02 07:27:35;;;;;;;14.07;7.80;;;;;;;3.52;100.00;99151.41;4954717;28;20130;-56
2022/01/02 07:30:00;;;;;;;9.33;5.23;;;;;;;3.52;100.00;99164.09;4956622;28;20042;-58
2022/01/02 07:32:26;;;;;;;9.67;5.13;;;;;;;3.43;100.00;99161.41;4956828;28;20023;-58
2022/01/02 07:34:52;;;;;;;5.63;3.80;;;;;;;3.40;100.00;99155.41;4956162;28;20037;-57
2022/01/02 07:37:18;;;;;;;4.30;2.97;;;;;;;3.42;100.00;99144.50;4955812;28;20475;-58
2022/01/02 07:39:43;;;;;;;2.67;2.47;;;;;;;3.45;100.00;99144.53;4961155;28;20034;-57
2022/01/02 07:42:09;;;;;;;3.37;3.07;;;;;;;3.62;100.00;99147.34;4958820;28;20030;-58
2022/01/02 07:44:36;;;;;;;4.20;3.10;;;;;;;3.72;100.00;99151.75;4953137;28;20137;-57
2022/01/02 07:47:04;;;;;;;3.50;3.20;;;;;;;3.78;100.00;99133.28;4951081;28;20125;-51
2022/01/02 07:49:29;;;;;;;3.83;3.10;;;;;;;3.88;100.00;99135.09;4956689;28;20371;-57
2022/01/02 07:51:55;;;;;;;3.43;2.50;;;;;;;3.98;100.00;99137.81;4958455;28;20126;-56
2022/01/02 07:54:20;;;;;;;3.30;2.90;;;;;;;4.08;100.00;99143.84;4955033;28;20505;-53
2022/01/02 07:56:45;;;;;;;4.40;3.37;;;;;;;4.21;100.00;99130.53;4956955;28;20042;-55
2022/01/02 07:59:12;;;;;;;5.70;3.30;;;;;;;4.37;100.00;99129.91;4956546;28;20074;-55
2022/01/02 08:01:38;;;;;;;5.20;3.73;;;;;;;4.44;100.00;99116.47;4956800;28;20122;-56
2022/01/02 08:04:03;;;;;;;3.43;3.13;;;;;;;4.56;100.00;99124.25;4956970;28;20035;-55
2022/01/02 08:06:28;;;;;;;3.70;2.70;;;;;;;4.54;100.00;99114.91;4955314;28;20446;-53
2022/01/02 08:08:54;;;;;;;4.23;2.77;;;;;;;4.49;100.00;99104.69;4957393;28;20054;-53
2022/01/02 08:11:19;;;;;;;4.93;2.63;;;;;;;4.49;100.00;99111.47;4958999;28;20034;-55
2022/01/02 08:13:45;;;;;;;3.10;2.53;;;;;;;4.44;100.00;99110.53;4955654;28;20047;-54
2022/01/02 08:16:11;;;;;;;2.90;2.70;;;;;;;4.46;100.00;99108.88;4955178;28;20053;-55
2022/01/02 08:18:41;;;;;;;3.20;2.80;;;;;;;4.50;100.00;99103.00;4959746;28;20417;-56
2022/01/02 08:21:07;;;;;;;3.70;3.00;;;;;;;4.54;100.00;99084.44;4961242;28;20055;-55
2022/01/02 08:23:33;;;;;;;4.10;3.63;;;;;;;4.57;100.00;99090.41;4954076;28;20126;-57
2022/01/02 08:25:59;;;;;;;2.70;2.50;;;;;;;4.74;100.00;99092.28;4954179;28;20449;-54
2022/01/02 08:28:24;;;;;;;4.83;2.90;;;;;;;4.87;100.00;99089.06;4958792;28;20041;-55
2022/01/02 08:30:50;;;;;;;2.83;2.40;;;;;;;5.03;100.00;99090.91;4956353;28;20119;-57
2022/01/02 08:33:16;;;;;;;2.30;2.07;;;;;;;5.21;100.00;99091.13;4953293;28;20033;-56
2022/01/02 08:35:45;;;;;;;2.13;1.93;;;;;;;5.32;100.00;99078.50;4950923;28;20514;-58
2022/01/02 08:38:12;;;;;;;3.30;2.33;;;;;;;5.43;100.00;99076.91;4954064;28;20039;-56
2022/01/02 08:40:38;;;;;;;3.27;2.77;;;;;;;5.63;100.00;99077.06;4940090;28;20030;-56
2022/01/02 08:43:05;;;;;;;2.90;2.43;;;;;;;5.66;100.00;99075.38;4954161;28;20042;-54
2022/01/02 08:45:31;;;;;;;3.13;2.07;;;;;;;5.81;100.00;99075.47;4953694;28;20564;-57
2022/01/02 08:47:58;;;;;;;2.27;2.00;;;;;;;5.98;100.00;99073.13;4956426;28;20413;-54
2022/01/02 08:50:23;;;;;;;3.07;2.57;;;;;;;6.16;100.00;99069.81;4955863;28;20050;-56
2022/01/02 08:52:49;;;;;;;2.67;2.47;;;;;;;6.20;100.00;99062.19;4955553;28;20255;-57
2022/01/02 08:55:15;;;;;;;2.53;2.30;;;;;;;6.33;100.00;99055.47;4952373;28;20035;-56
2022/01/02 08:57:41;;;;;;;3.23;2.23;;;;;;;6.52;100.00;99052.16;4956395;28;20031;-55
2022/01/02 09:00:07;;;;;;;3.10;2.50;;;;;;;6.73;100.00;99057.34;4954251;28;20034;-54
2022/01/02 09:02:32;;;;;;;3.30;2.63;;;;;;;6.86;100.00;99048.88;4942201;28;20039;-56
2022/01/02 09:04:57;;;;;;;3.10;2.50;;;;;;;6.92;100.00;99057.41;4950543;28;20097;-56
2022/01/02 09:07:23;;;;;;;3.53;2.67;;;;;;;7.01;100.00;99053.16;4949219;28;20029;-58
2022/01/02 09:09:48;;;;;;;3.33;2.70;;;;;;;7.08;100.00;99052.34;4950399;28;20023;-58
2022/01/02 09:12:14;;;;;;;5.07;3.37;;;;;;;7.09;100.00;99050.59;4954233;28;20031;-57
2022/01/02 09:14:41;;;;;;;4.67;2.90;;;;;;;7.10;100.00;99045.53;4953453;28;20048;-57
2022/01/02 09:17:07;;;;;;;5.10;3.23;;;;;;;7.12;100.00;99041.28;4950602;28;20413;-58
2022/01/02 09:19:32;;;;;;;3.10;2.80;;;;;;;7.19;100.00;99044.69;4954262;28;20073;-60
2022/01/02 09:21:58;;;;;;;3.63;2.60;;;;;;;7.39;100.00;99042.13;4955088;28;20054;-61
2022/01/02 09:24:23;;;;;;;4.73;2.80;;;;;;;7.55;100.00;99026.84;4952235;28;20525;-61
2022/01/02 09:26:49;;;;;;;4.30;2.63;;;;;;;7.79;100.00;99033.63;4951685;28;20149;-59
2022/01/02 09:29:14;;;;;;;4.13;3.23;;;;;;;7.94;100.00;99030.16;4952810;28;20034;-56
2022/01/02 09:31:40;;;;;;;3.27;2.93;;;;;;;8.14;100.00;99033.56;4954234;28;20082;-59
2022/01/02 09:34:06;;;;;;;10.37;7.23;;;;;;;8.34;100.00;99025.84;4951240;28;20105;-59
2022/01/02 09:36:31;;;;;;;6.67;4.13;;;;;;;8.48;100.00;99031.75;4949567;28;20073;-57
2022/01/02 09:38:57;;;;;;;4.97;3.13;;;;;;;8.61;100.00;99026.56;4952039;28;20038;-59
2022/01/02 09:41:23;;;;;;;3.47;2.80;;;;;;;8.99;100.00;99022.97;4950448;28;20027;-57
2022/01/02 09:43:50;;;;;;;4.90;3.80;;;;;;;9.09;100.00;99022.88;4950876;28;20041;-57
2022/01/02 09:46:23;;;;;;;4.75;3.47;;;;;;;9.15;100.00;99020.28;4959136;28;20039;-58
2022/01/02 09:48:50;;;;;;;3.60;3.30;;;;;;;9.34;100.00;99020.97;4954195;28;20483;-59
2022/01/02 09:51:22;;;;;;;5.17;3.67;;;;;;;9.84;100.00;99018.00;4947547;28;20361;-58
2022/01/02 09:53:48;;;;;;;3.92;3.60;;;;;;;9.72;100.00;99018.09;4951434;28;20030;-58
2022/01/02 09:56:14;;;;;;;6.10;3.92;;;;;;;9.75;100.00;99007.84;4954263;28;20027;-58
2022/01/02 09:58:42;;;;;;;5.70;3.22;;;;;;;9.82;100.00;99011.19;4951882;28;20425;-58
2022/01/02 10:01:17;;;;;;;4.30;3.47;;;;;;;9.71;100.00;99011.31;4950395;28;20043;-58
2022/01/02 10:03:50;;;;;;;3.05;2.78;;;;;;;9.91;100.00;99000.84;4953772;28;20031;-59
2022/01/02 10:06:16;;;;;;;4.63;3.30;;;;;;;10.07;100.00;99002.38;4954515;28;20495;-59
2022/01/02 10:08:43;;;;;;;5.70;3.70;;;;;;;9.97;100.00;99001.63;4948807;28;20481;-58
2022/01/02 10:11:25;;;;;;;5.25;4.72;;;;;;;9.85;100.00;98998.34;4950097;28;20382;-57
2022/01/02 10:13:56;;;;;;;5.80;4.07;;;;;;;9.88;100.00;98994.06;4955947;28;20515;-58
2022/01/02 10:16:34;;;;;;;5.97;4.57;;;;;;;9.79;100.00;98994.16;4952519;28;20151;-58
2022/01/02 10:19:26;;;;;;;4.75;4.28;;;;;;;9.79;100.00;98989.03;4947692;28;20030;-57
2022/01/02 10:22:06;;;;;;;6.45;4.70;;;;;;;9.84;100.00;98973.63;4948114;28;20413;-57
2022/01/02 10:24:37;;;;;;;7.13;4.53;;;;;;;9.92;100.00;98969.25;4956935;28;20047;-57
2022/01/02 10:27:17;;;;;;;7.47;3.97;;;;;;;9.94;100.00;98970.06;4955981;28;20074;-58
2022/01/02 10:29:55;;;;;;;5.25;4.32;;;;;;;9.92;100.00;98975.22;4947986;28;20062;-58
2022/01/02 10:32:33;;;;;;;4.50;3.80;;;;;;;9.79;100.00;98968.53;4953500;28;20042;-57
2022/01/02 10:35:17;;;;;;;507.02;450.98;;;;;;;9.89;100.00;98975.25;4950641;28;20545;-60
2022/01/02 10:38:04;;;;;;;6.88;4.72;;;;;;;9.93;100.00;98971.78;4950603;28;20540;-60
2022/01/02 10:40:33;;;;;;;46.97;30.90;;;;;;;10.01;100.00;98962.28;4951498;28;20042;-60
2022/01/02 10:43:00;;;;;;;6.40;4.97;;;;;;;9.99;100.00;98961.47;4956480;28;20049;-58
2022/01/02 10:45:34;;;;;;;6.13;4.82;;;;;;;10.10;100.00;98957.06;4953379;28;20039;-57
2022/01/02 10:48:00;;;;;;;5.47;4.97;;;;;;;10.13;100.00;98953.66;4951006;28;20034;-57
2022/01/02 10:50:25;;;;;;;7.63;5.10;;;;;;;10.12;100.00;98956.22;4952047;28;20097;-59
2022/01/02 10:52:51;;;;;;;4.75;4.32;;;;;;;10.04;100.00;98954.59;4950563;28;20465;-59
2022/01/02 10:55:21;;;;;;;4.68;4.05;;;;;;;10.17;100.00;98954.47;4951239;28;20109;-59
2022/01/02 10:57:49;;;;;;;4.22;3.63;;;;;;;10.10;100.00;98949.38;4952380;28;20031;-60
2022/01/02 11:00:20;;;;;;;282.20;160.90;;;;;;;10.16;100.00;98955.34;4949996;28;20456;-57
2022/01/02 11:02:46;;;;;;;431.83;259.67;;;;;;;10.29;100.00;98949.19;4951147;28;20546;-58
2022/01/02 11:05:14;;;;;;;5.80;4.20;;;;;;;10.20;100.00;98949.31;4949645;28;20385;-58
2022/01/02 11:07:42;;;;;;;4.93;4.03;;;;;;;10.16;100.00;98947.66;4951682;28;20030;-59
2022/01/02 11:10:10;;;;;;;4.85;3.67;;;;;;;10.19;100.00;98939.91;4952836;28;20039;-59
2022/01/02 11:12:38;;;;;;;5.18;4.03;;;;;;;10.35;100.00;98937.16;4950737;28;20039;-60
2022/01/02 11:15:06;;;;;;;4.43;3.50;;;;;;;10.41;100.00;98929.38;4949003;28;20094;-58
2022/01/02 11:17:38;;;;;;;3.88;3.28;;;;;;;10.47;100.00;98933.59;4951437;28;20442;-59
2022/01/02 11:20:05;;;;;;;4.32;3.70;;;;;;;10.41;100.00;98928.53;4951462;28;20039;-59
2022/01/02 11:22:41;;;;;;;4.45;3.63;;;;;;;10.31;100.00;98919.28;4948770;28;20065;-58
2022/01/02 11:25:18;;;;;;;4.38;3.97;;;;;;;10.42;100.00;98919.97;4950218;28;20503;-60
2022/01/02 11:27:52;;;;;;;5.32;3.70;;;;;;;10.40;100.00;98909.75;4953863;28;20063;-60
2022/01/02 11:30:30;;;;;;;4.70;3.72;;;;;;;10.37;100.00;98914.91;4950958;28;20253;-58
2022/01/02 11:33:09;;;;;;;4.85;4.32;;;;;;;10.40;100.00;98916.56;4948842;28;20054;-55
2022/01/02 11:35:37;;;;;;;5.70;4.50;;;;;;;10.23;100.00;98914.25;4951416;28;20039;-56
2022/01/02 11:38:04;;;;;;;5.10;4.57;;;;;;;10.24;100.00;98904.84;4950881;28;20125;-59
2022/01/02 11:40:43;;;;;;;5.70;4.55;;;;;;;10.21;100.00;98892.09;4949303;28;20098;-59